createdAt,value
2023-05-20T00:02:23.574Z,11.30
2023-05-20T00:04:50.221Z,11.27
2023-05-20T00:07:16.726Z,11.26
2023-05-20T00:09:43.220Z,11.24
2023-05-20T00:12:09.709Z,11.22
2023-05-20T00:14:36.275Z,11.27
2023-05-20T00:17:03.369Z,11.20
2023-05-20T00:19:29.911Z,11.17
2023-05-20T00:21:57.974Z,11.14
2023-05-20T00:24:25.270Z,11.09
2023-05-20T00:26:51.862Z,11.07
2023-05-20T00:29:18.479Z,11.08
2023-05-20T00:31:45.050Z,11.08
2023-05-20T00:34:11.739Z,11.06
2023-05-20T00:36:38.204Z,11.01
2023-05-20T00:39:05.191Z,10.99
2023-05-20T00:41:32.598Z,10.95
2023-05-20T00:43:59.086Z,10.92
2023-05-20T00:46:26.864Z,10.88
2023-05-20T00:48:53.797Z,10.86
2023-05-20T00:51:20.973Z,10.85
2023-05-20T00:53:47.943Z,10.85
2023-05-20T00:56:14.480Z,10.87
2023-05-20T00:58:41.154Z,10.86
2023-05-20T01:01:07.742Z,10.77
2023-05-20T01:03:35.158Z,10.80
2023-05-20T01:06:02.961Z,10.81
2023-05-20T01:08:29.786Z,10.77
2023-05-20T01:11:29.737Z,10.75
2023-05-20T01:14:03.627Z,10.77
2023-05-20T01:16:34.106Z,10.73
2023-05-20T01:19:03.992Z,10.66
2023-05-20T01:21:32.335Z,10.73
2023-05-20T01:23:58.895Z,10.64
2023-05-20T01:26:27.165Z,10.60
2023-05-20T01:28:54.242Z,10.60
2023-05-20T01:31:33.977Z,10.62
2023-05-20T01:34:01.042Z,10.59
2023-05-20T01:36:28.928Z,10.59
2023-05-20T01:38:56.211Z,10.53
2023-05-20T01:41:25.164Z,10.54
2023-05-20T01:43:52.029Z,10.50
2023-05-20T01:46:18.622Z,10.47
2023-05-20T01:48:45.164Z,10.42
2023-05-20T01:51:11.669Z,10.43
2023-05-20T01:53:38.253Z,10.37
2023-05-20T01:56:06.178Z,10.35
2023-05-20T01:58:32.809Z,10.37
2023-05-20T02:01:00.069Z,10.30
2023-05-20T02:03:26.642Z,10.31
2023-05-20T02:05:53.284Z,10.32
2023-05-20T02:08:19.804Z,10.27
2023-05-20T02:10:48.881Z,10.28
2023-05-20T02:13:15.447Z,10.22
2023-05-20T02:15:42.620Z,10.17
2023-05-20T02:18:09.160Z,10.12
2023-05-20T02:20:36.524Z,10.10
2023-05-20T02:23:05.832Z,10.10
2023-05-20T02:25:32.993Z,10.11
2023-05-20T02:27:59.735Z,10.05
2023-05-20T02:30:27.213Z,10.08
2023-05-20T02:32:53.730Z,10.10
2023-05-20T02:35:20.267Z,10.09
2023-05-20T02:37:48.337Z,10.08
2023-05-20T02:40:14.999Z,10.01
2023-05-20T02:42:41.509Z,9.99
2023-05-20T02:45:08.493Z,9.98
2023-05-20T02:47:35.037Z,9.90
2023-05-20T02:50:01.615Z,9.93
2023-05-20T02:52:28.482Z,9.83
2023-05-20T02:54:55.002Z,9.85
2023-05-20T02:57:21.803Z,9.84
2023-05-20T02:59:48.316Z,9.82
2023-05-20T03:02:14.814Z,9.79
2023-05-20T03:04:41.392Z,9.76
2023-05-20T03:07:09.048Z,9.73
2023-05-20T03:09:35.730Z,9.75
2023-05-20T03:12:02.240Z,9.73
2023-05-20T03:14:28.797Z,9.75
2023-05-20T03:16:59.984Z,9.72
2023-05-20T03:19:26.617Z,9.72
2023-05-20T03:21:53.224Z,9.69
2023-05-20T03:24:19.737Z,9.67
2023-05-20T03:26:47.045Z,9.68
2023-05-20T03:29:13.598Z,9.63
2023-05-20T03:31:40.267Z,9.64
2023-05-20T03:34:07.821Z,9.67
2023-05-20T03:36:34.382Z,9.68
2023-05-20T03:39:01.964Z,9.61
2023-05-20T03:41:28.511Z,9.61
2023-05-20T03:43:55.002Z,9.57
2023-05-20T03:46:21.605Z,9.60
2023-05-20T03:48:48.204Z,9.58
2023-05-20T03:51:14.660Z,9.56
2023-05-20T03:53:41.131Z,9.59
2023-05-20T03:56:07.655Z,9.63
2023-05-20T03:58:35.320Z,9.64
2023-05-20T04:01:01.830Z,9.62
2023-05-20T04:03:29.147Z,9.65
2023-05-20T04:05:55.858Z,9.72
2023-05-20T04:08:22.350Z,9.75
2023-05-20T04:10:49.411Z,9.74
2023-05-20T04:13:16.413Z,9.84
2023-05-20T04:15:42.929Z,9.83
2023-05-20T04:18:10.396Z,9.89
2023-05-20T04:20:36.986Z,10.00
2023-05-20T04:23:03.540Z,10.06
2023-05-20T04:25:30.117Z,10.16
2023-05-20T04:27:57.914Z,10.25
2023-05-20T04:30:24.611Z,10.33
2023-05-20T04:32:51.311Z,10.38
2023-05-20T04:35:18.499Z,10.45
2023-05-20T04:37:48.411Z,10.46
2023-05-20T04:40:15.047Z,10.53
2023-05-20T04:42:41.605Z,10.52
2023-05-20T04:45:08.832Z,10.59
2023-05-20T04:47:38.718Z,10.68
2023-05-20T04:50:08.310Z,10.68
2023-05-20T04:52:34.792Z,10.77
2023-05-20T04:55:01.933Z,10.85
2023-05-20T04:57:28.479Z,10.89
2023-05-20T04:59:58.707Z,10.93
2023-05-20T05:02:25.425Z,11.01
2023-05-20T05:04:52.101Z,11.08
2023-05-20T05:07:18.586Z,11.12
2023-05-20T05:09:45.084Z,11.18
2023-05-20T05:12:11.567Z,11.24
2023-05-20T05:14:38.058Z,11.29
2023-05-20T05:17:04.724Z,11.35
2023-05-20T05:19:31.650Z,11.42
2023-05-20T05:21:58.166Z,11.50
2023-05-20T05:24:24.650Z,11.56
2023-05-20T05:26:54.904Z,11.65
2023-05-20T05:29:21.662Z,11.72
2023-05-20T05:31:48.336Z,11.80
2023-05-20T05:34:14.945Z,11.86
2023-05-20T05:36:41.773Z,11.89
2023-05-20T05:39:08.271Z,11.98
2023-05-20T05:41:34.759Z,12.07
2023-05-20T05:44:01.255Z,12.13
2023-05-20T05:46:27.854Z,12.17
2023-05-20T05:48:54.438Z,12.27
2023-05-20T05:51:21.063Z,12.26
2023-05-20T05:53:47.556Z,12.32
2023-05-20T05:56:14.052Z,12.41
2023-05-20T05:58:40.558Z,12.42
2023-05-20T06:01:07.094Z,12.53
2023-05-20T06:03:33.752Z,12.64
2023-05-20T06:06:00.392Z,12.69
2023-05-20T06:08:26.905Z,12.74
2023-05-20T06:10:53.481Z,12.85
2023-05-20T06:13:20.658Z,12.93
2023-05-20T06:15:49.503Z,13.05
2023-05-20T06:18:16.069Z,13.14
2023-05-20T06:20:42.563Z,13.20
2023-05-20T06:23:09.050Z,13.36
2023-05-20T06:25:35.738Z,13.43
2023-05-20T06:28:02.411Z,13.44
2023-05-20T06:30:28.926Z,13.49
2023-05-20T06:32:55.478Z,13.59
2023-05-20T06:35:22.020Z,13.64
2023-05-20T06:37:48.552Z,13.73
2023-05-20T06:40:15.299Z,13.87
2023-05-20T06:42:41.813Z,13.90
2023-05-20T06:45:08.745Z,13.99
2023-05-20T06:47:36.563Z,14.18
2023-05-20T06:50:03.463Z,14.29
2023-05-20T06:52:29.930Z,14.36
2023-05-20T06:54:56.582Z,14.51
2023-05-20T06:57:23.068Z,14.53
2023-05-20T06:59:49.624Z,14.61
2023-05-20T07:02:16.283Z,14.74
2023-05-20T07:04:42.886Z,14.95
2023-05-20T07:07:09.370Z,15.05
2023-05-20T07:09:35.891Z,15.13
2023-05-20T07:12:02.451Z,15.19
2023-05-20T07:14:29.026Z,15.31
2023-05-20T07:16:55.513Z,15.39
2023-05-20T07:19:22.020Z,15.39
2023-05-20T07:21:49.952Z,15.52
2023-05-20T07:24:17.799Z,15.68
2023-05-20T07:26:44.827Z,15.66
2023-05-20T07:29:11.344Z,15.76
2023-05-20T07:31:37.920Z,15.83
2023-05-20T07:34:04.633Z,15.98
2023-05-20T07:36:31.317Z,16.10
2023-05-20T07:39:04.231Z,16.10
2023-05-20T07:41:32.586Z,16.17
2023-05-20T07:43:59.264Z,16.27
2023-05-20T07:46:26.031Z,16.43
2023-05-20T07:48:52.887Z,16.47
2023-05-20T07:51:19.436Z,16.49
2023-05-20T07:53:45.998Z,16.63
2023-05-20T07:56:12.678Z,16.70
2023-05-20T07:58:41.731Z,16.82
2023-05-20T08:01:09.386Z,16.79
2023-05-20T08:03:36.916Z,16.90
2023-05-20T08:06:03.765Z,17.00
2023-05-20T08:08:33.301Z,16.92
2023-05-20T08:11:01.528Z,17.00
2023-05-20T08:13:28.351Z,17.14
2023-05-20T08:15:54.918Z,17.17
2023-05-20T08:18:22.109Z,17.14
2023-05-20T08:20:48.653Z,17.19
2023-05-20T08:23:15.171Z,17.27
2023-05-20T08:25:41.647Z,17.40
2023-05-20T08:28:08.289Z,17.46
2023-05-20T08:30:34.840Z,17.56
2023-05-20T08:33:01.914Z,17.63
2023-05-20T08:35:28.626Z,17.62
2023-05-20T08:37:55.158Z,17.75
2023-05-20T08:40:22.379Z,17.84
2023-05-20T08:42:50.434Z,17.84
2023-05-20T08:45:21.260Z,17.80
2023-05-20T08:47:47.924Z,17.83
2023-05-20T08:50:15.118Z,17.89
2023-05-20T08:52:46.322Z,17.84
2023-05-20T08:55:22.840Z,17.73
2023-05-20T08:57:51.529Z,17.70
2023-05-20T09:00:18.624Z,17.72
2023-05-20T09:02:46.204Z,17.70
2023-05-20T09:05:13.383Z,17.70
2023-05-20T09:07:40.168Z,17.95
2023-05-20T09:10:07.147Z,18.12
2023-05-20T09:12:33.724Z,18.23
2023-05-20T09:15:00.311Z,18.36
2023-05-20T09:17:27.317Z,18.33
2023-05-20T09:19:54.234Z,18.15
2023-05-20T09:22:28.110Z,18.27
2023-05-20T09:24:55.409Z,18.17
2023-05-20T09:27:22.289Z,18.14
2023-05-20T09:29:49.092Z,18.02
2023-05-20T09:32:16.364Z,18.01
2023-05-20T09:34:43.167Z,17.99
2023-05-20T09:37:10.222Z,18.04
2023-05-20T09:39:48.462Z,18.13
2023-05-20T09:43:04.152Z,18.47
2023-05-20T09:45:30.992Z,18.58
2023-05-20T09:47:58.219Z,18.44
2023-05-20T09:50:25.714Z,18.56
2023-05-20T09:52:54.374Z,18.66
2023-05-20T09:55:24.269Z,18.78
2023-05-20T09:57:51.813Z,18.79
2023-05-20T10:00:18.469Z,18.86
2023-05-20T10:02:47.790Z,18.74
2023-05-20T10:05:19.197Z,18.86
2023-05-20T10:08:22.380Z,18.96
2023-05-20T10:10:54.657Z,19.03
2023-05-20T10:13:36.629Z,19.03
2023-05-20T10:16:06.109Z,19.21
2023-05-20T10:18:35.704Z,19.17
2023-05-20T10:21:02.299Z,19.08
2023-05-20T10:23:30.638Z,19.07
2023-05-20T10:25:58.187Z,19.11
2023-05-20T10:28:36.447Z,19.05
2023-05-20T10:31:14.360Z,19.34
2023-05-20T10:33:45.646Z,19.27
2023-05-20T10:36:30.592Z,19.13
2023-05-20T10:38:59.188Z,18.98
2023-05-20T10:41:27.980Z,18.83
2023-05-20T10:44:01.968Z,18.90
2023-05-20T10:46:35.382Z,19.21
2023-05-20T10:49:25.184Z,19.25
2023-05-20T10:51:54.287Z,19.33
2023-05-20T10:54:22.365Z,19.17
2023-05-20T10:56:53.735Z,19.27
2023-05-20T10:59:22.391Z,19.30
2023-05-20T11:01:49.232Z,19.36
2023-05-20T11:04:17.470Z,19.40
2023-05-20T11:06:54.180Z,19.55
2023-05-20T11:09:21.198Z,19.67
2023-05-20T11:11:47.906Z,19.82
2023-05-20T11:14:15.115Z,19.84
2023-05-20T11:16:42.373Z,19.81
2023-05-20T11:19:09.515Z,19.78
2023-05-20T11:21:44.055Z,20.07
2023-05-20T11:24:11.031Z,20.29
2023-05-20T11:26:37.607Z,20.32
2023-05-20T11:29:04.798Z,20.56
2023-05-20T11:31:32.309Z,20.74
2023-05-20T11:34:02.453Z,20.73
2023-05-20T11:36:30.478Z,20.72
2023-05-20T11:38:59.033Z,20.65
2023-05-20T11:41:27.094Z,20.12
2023-05-20T11:44:00.248Z,19.99
2023-05-20T11:46:27.935Z,19.92
2023-05-20T11:48:55.234Z,20.10
2023-05-20T11:51:27.423Z,20.23
2023-05-20T11:53:59.035Z,20.11
2023-05-20T11:56:26.097Z,20.27
2023-05-20T11:58:52.699Z,20.39
2023-05-20T12:01:22.938Z,20.34
2023-05-20T12:03:50.079Z,20.46
2023-05-20T12:06:17.606Z,20.29
2023-05-20T12:08:44.090Z,20.22
2023-05-20T12:11:10.797Z,20.25
2023-05-20T12:13:37.902Z,20.41
2023-05-20T12:16:06.028Z,20.67
2023-05-20T12:18:33.163Z,20.80
2023-05-20T12:21:00.629Z,20.88
2023-05-20T12:23:27.464Z,21.03
2023-05-20T12:25:54.028Z,20.75
2023-05-20T12:28:21.703Z,20.35
2023-05-20T12:30:48.203Z,20.14
2023-05-20T12:33:14.780Z,19.92
2023-05-20T12:35:42.800Z,19.77
2023-05-20T12:38:09.926Z,19.64
2023-05-20T12:40:38.069Z,19.75
2023-05-20T12:43:05.868Z,19.92
2023-05-20T12:45:32.501Z,20.21
2023-05-20T12:47:59.560Z,20.05
2023-05-20T12:50:27.340Z,19.90
2023-05-20T12:52:54.024Z,19.74
2023-05-20T12:55:20.642Z,19.95
2023-05-20T12:57:47.542Z,20.10
2023-05-20T13:00:14.959Z,20.49
2023-05-20T13:02:42.631Z,20.53
2023-05-20T13:05:10.505Z,20.58
2023-05-20T13:07:37.218Z,20.55
2023-05-20T13:10:04.081Z,20.58
2023-05-20T13:12:30.705Z,20.73
2023-05-20T13:14:57.242Z,20.72
2023-05-20T13:17:23.802Z,20.78
2023-05-20T13:19:50.438Z,20.83
2023-05-20T13:22:17.048Z,20.72
2023-05-20T13:24:43.722Z,20.81
2023-05-20T13:27:10.758Z,20.83
2023-05-20T13:29:37.274Z,20.91
2023-05-20T13:32:04.248Z,20.93
2023-05-20T13:34:31.544Z,20.79
2023-05-20T13:36:58.030Z,20.56
2023-05-20T13:39:25.058Z,20.40
2023-05-20T13:41:53.537Z,20.50
2023-05-20T13:44:20.254Z,20.54
2023-05-20T13:46:47.009Z,20.63
2023-05-20T13:49:13.661Z,20.57
2023-05-20T13:51:40.348Z,20.51
2023-05-20T13:54:06.919Z,20.72
2023-05-20T13:56:33.989Z,20.98
2023-05-20T13:59:00.544Z,21.07
2023-05-20T14:01:28.517Z,20.93
2023-05-20T14:03:55.163Z,20.85
2023-05-20T14:06:21.857Z,20.75
2023-05-20T14:08:48.394Z,20.67
2023-05-20T14:11:14.899Z,20.53
2023-05-20T14:13:41.445Z,20.60
2023-05-20T14:16:07.969Z,20.66
2023-05-20T14:18:34.468Z,20.63
2023-05-20T14:21:01.264Z,20.76
2023-05-20T14:23:27.784Z,21.12
2023-05-20T14:25:54.608Z,21.21
2023-05-20T14:28:21.109Z,20.89
2023-05-20T14:30:47.637Z,20.61
2023-05-20T14:33:14.479Z,20.39
2023-05-20T14:35:41.210Z,20.27
2023-05-20T14:38:07.743Z,20.29
2023-05-20T14:40:34.548Z,20.41
2023-05-20T14:43:01.274Z,20.72
2023-05-20T14:45:27.763Z,21.00
2023-05-20T14:47:54.288Z,21.00
2023-05-20T14:50:20.979Z,21.02
2023-05-20T14:52:47.512Z,21.05
2023-05-20T14:55:14.073Z,20.75
2023-05-20T14:57:40.684Z,20.53
2023-05-20T15:00:09.214Z,20.29
2023-05-20T15:02:35.845Z,20.26
2023-05-20T15:05:02.456Z,20.48
2023-05-20T15:07:29.252Z,20.35
2023-05-20T15:09:55.832Z,20.43
2023-05-20T15:12:22.338Z,20.50
2023-05-20T15:14:48.861Z,20.39
2023-05-20T15:17:15.519Z,20.27
2023-05-20T15:19:42.297Z,19.98
2023-05-20T15:22:09.002Z,19.84
2023-05-20T15:24:35.677Z,19.74
2023-05-20T15:27:02.363Z,19.75
2023-05-20T15:29:28.881Z,19.70
2023-05-20T15:31:55.432Z,19.72
2023-05-20T15:34:22.004Z,19.79
2023-05-20T15:36:48.529Z,19.75
2023-05-20T15:39:15.161Z,19.75
2023-05-20T15:41:42.433Z,19.71
2023-05-20T15:44:09.178Z,19.66
2023-05-20T15:46:36.027Z,19.70
2023-05-20T15:49:04.840Z,19.68
2023-05-20T15:51:31.653Z,19.67
2023-05-20T15:53:58.160Z,19.66
2023-05-20T15:56:24.757Z,19.49
2023-05-20T15:58:51.280Z,19.32
2023-05-20T16:01:17.975Z,19.27
2023-05-20T16:03:44.589Z,19.24
2023-05-20T16:06:11.855Z,19.27
2023-05-20T16:08:38.569Z,19.26
2023-05-20T16:11:05.468Z,19.27
2023-05-20T16:13:31.948Z,19.24
2023-05-20T16:15:59.016Z,19.17
2023-05-20T16:18:28.753Z,19.22
2023-05-20T16:20:55.960Z,19.23
2023-05-20T16:23:22.913Z,19.12
2023-05-20T16:25:49.743Z,19.17
2023-05-20T16:28:16.414Z,19.21
2023-05-20T16:30:42.988Z,19.28
2023-05-20T16:33:09.566Z,19.37
2023-05-20T16:35:36.058Z,19.34
2023-05-20T16:38:02.664Z,19.29
2023-05-20T16:40:29.212Z,19.33
2023-05-20T16:42:55.859Z,19.34
2023-05-20T16:45:22.400Z,19.36
2023-05-20T16:47:49.024Z,19.30
2023-05-20T16:50:15.662Z,19.26
2023-05-20T16:52:42.243Z,19.27
2023-05-20T16:55:10.172Z,19.23
2023-05-20T16:57:36.799Z,19.19
2023-05-20T17:00:13.085Z,19.27
2023-05-20T17:02:39.860Z,19.25
2023-05-20T17:05:06.843Z,19.30
2023-05-20T17:07:34.103Z,19.27
2023-05-20T17:10:01.054Z,19.28
2023-05-20T17:12:27.892Z,19.29
2023-05-20T17:14:54.517Z,19.23
2023-05-20T17:17:22.549Z,19.18
2023-05-20T17:19:49.141Z,19.16
2023-05-20T17:22:15.712Z,19.06
2023-05-20T17:24:42.212Z,18.89
2023-05-20T17:27:08.776Z,18.84
2023-05-20T17:29:35.481Z,18.81
2023-05-20T17:32:02.091Z,18.75
2023-05-20T17:34:28.628Z,18.79
2023-05-20T17:36:55.192Z,18.72
2023-05-20T17:39:21.944Z,18.62
2023-05-20T17:41:48.488Z,18.55
2023-05-20T17:44:14.964Z,18.56
2023-05-20T17:46:41.721Z,18.51
2023-05-20T17:49:08.372Z,18.45
2023-05-20T17:51:35.024Z,18.45
2023-05-20T17:54:01.607Z,18.47
2023-05-20T17:56:28.282Z,18.54
2023-05-20T17:58:56.105Z,18.50
2023-05-20T18:01:23.533Z,18.53
2023-05-20T18:03:50.321Z,18.52
2023-05-20T18:06:18.035Z,18.49
2023-05-20T18:08:44.674Z,18.50
2023-05-20T18:11:11.215Z,18.48
2023-05-20T18:13:37.741Z,18.41
2023-05-20T18:16:04.753Z,18.41
2023-05-20T18:18:31.376Z,18.37
2023-05-20T18:20:57.911Z,18.35
2023-05-20T18:23:24.461Z,18.30
2023-05-20T18:25:50.949Z,18.27
2023-05-20T18:28:17.528Z,18.20
2023-05-20T18:30:44.029Z,18.19
2023-05-20T18:33:10.885Z,18.15
2023-05-20T18:35:37.589Z,18.09
2023-05-20T18:38:04.169Z,18.04
2023-05-20T18:40:30.797Z,18.02
2023-05-20T18:42:57.423Z,18.01
2023-05-20T18:45:24.901Z,17.95
2023-05-20T18:47:53.807Z,17.91
2023-05-20T18:50:20.564Z,17.81
2023-05-20T18:52:47.059Z,17.73
2023-05-20T18:55:13.601Z,17.73
2023-05-20T18:57:40.163Z,17.73
2023-05-20T19:00:12.619Z,17.69
2023-05-20T19:02:40.628Z,17.67
2023-05-20T19:05:12.007Z,17.56
2023-05-20T19:07:39.246Z,17.53
2023-05-20T19:10:06.409Z,17.46
2023-05-20T19:12:33.419Z,17.46
2023-05-20T19:15:01.371Z,17.42
2023-05-20T19:17:27.901Z,17.42
2023-05-20T19:19:54.524Z,17.38
2023-05-20T19:22:21.049Z,17.34
2023-05-20T19:24:47.565Z,17.22
2023-05-20T19:27:14.072Z,17.14
2023-05-20T19:29:40.704Z,17.05
2023-05-20T19:32:07.449Z,16.96
2023-05-20T19:34:33.983Z,16.93
2023-05-20T19:37:00.567Z,16.88
2023-05-20T19:39:27.208Z,16.84
2023-05-20T19:41:53.760Z,16.83
2023-05-20T19:44:20.519Z,16.83
2023-05-20T19:46:47.496Z,16.80
2023-05-20T19:49:14.032Z,16.75
2023-05-20T19:51:40.970Z,16.61
2023-05-20T19:54:07.527Z,16.54
2023-05-20T19:56:34.019Z,16.48
2023-05-20T19:59:01.754Z,16.42
2023-05-20T20:01:28.752Z,16.31
2023-05-20T20:03:55.481Z,16.22
2023-05-20T20:06:22.403Z,16.12
2023-05-20T20:08:49.252Z,16.03
2023-05-20T20:11:15.957Z,15.93
2023-05-20T20:13:42.490Z,15.94
2023-05-20T20:16:09.127Z,15.90
2023-05-20T20:18:35.757Z,15.85
2023-05-20T20:21:05.768Z,15.77
2023-05-20T20:23:33.002Z,15.65
2023-05-20T20:25:59.503Z,15.69
2023-05-20T20:28:26.211Z,15.68
2023-05-20T20:30:52.783Z,15.66
2023-05-20T20:33:19.663Z,15.61
2023-05-20T20:35:46.624Z,15.56
2023-05-20T20:38:13.190Z,15.55
2023-05-20T20:40:41.871Z,15.53
2023-05-20T20:43:09.306Z,15.54
2023-05-20T20:45:38.438Z,15.49
2023-05-20T20:48:07.680Z,15.44
2023-05-20T20:50:35.707Z,15.47
2023-05-20T20:53:02.641Z,15.50
2023-05-20T20:55:32.134Z,15.43
2023-05-20T20:58:02.496Z,15.41
2023-05-20T21:00:29.356Z,15.48
2023-05-20T21:02:56.275Z,15.44
2023-05-20T21:05:26.760Z,15.35
2023-05-20T21:07:58.045Z,15.45
2023-05-20T21:10:29.120Z,15.45
2023-05-20T21:12:57.033Z,15.44
2023-05-20T21:15:24.678Z,15.44
2023-05-20T21:17:52.101Z,15.41
2023-05-20T21:20:21.318Z,15.38
2023-05-20T21:22:48.431Z,15.40
2023-05-20T21:25:15.043Z,15.38
2023-05-20T21:27:41.566Z,15.42
2023-05-20T21:30:09.668Z,15.42
2023-05-20T21:32:36.466Z,15.43
2023-05-20T21:35:03.340Z,15.44
2023-05-20T21:37:29.944Z,15.41
2023-05-20T21:39:56.514Z,15.41
2023-05-20T21:42:23.069Z,15.40
2023-05-20T21:44:49.646Z,15.38
2023-05-20T21:47:16.196Z,15.36
2023-05-20T21:49:42.783Z,15.36
2023-05-20T21:52:09.256Z,15.35
2023-05-20T21:54:36.327Z,15.31
2023-05-20T21:57:03.239Z,15.27
2023-05-20T21:59:29.776Z,15.26
2023-05-20T22:01:58.073Z,15.17
2023-05-20T22:04:25.097Z,15.19
2023-05-20T22:06:51.911Z,15.15
2023-05-20T22:09:18.502Z,15.11
2023-05-20T22:11:45.244Z,15.14
2023-05-20T22:14:16.099Z,15.14
2023-05-20T22:16:46.810Z,15.10
2023-05-20T22:19:15.136Z,15.04
2023-05-20T22:21:50.126Z,15.03
2023-05-20T22:24:18.097Z,14.97
2023-05-20T22:26:44.830Z,14.89
2023-05-20T22:29:11.350Z,14.87
2023-05-20T22:31:38.176Z,14.84
2023-05-20T22:34:05.520Z,14.88
2023-05-20T22:36:34.017Z,14.84
2023-05-20T22:39:04.558Z,14.85
2023-05-20T22:41:31.345Z,14.90
2023-05-20T22:43:58.161Z,14.89
2023-05-20T22:46:25.646Z,14.88
2023-05-20T22:48:53.032Z,14.89
2023-05-20T22:51:21.349Z,14.86
2023-05-20T22:53:48.557Z,14.87
2023-05-20T22:56:15.608Z,14.87
2023-05-20T22:58:42.561Z,14.87
2023-05-20T23:01:10.258Z,14.89
2023-05-20T23:03:37.092Z,14.92
2023-05-20T23:06:04.135Z,14.91
2023-05-20T23:08:30.738Z,14.90
2023-05-20T23:10:57.207Z,14.87
2023-05-20T23:13:23.763Z,14.86
2023-05-20T23:15:50.391Z,14.89
2023-05-20T23:18:17.988Z,14.85
2023-05-20T23:20:44.527Z,14.84
2023-05-20T23:23:11.880Z,14.86
2023-05-20T23:25:39.230Z,14.81
2023-05-20T23:28:06.251Z,14.82
2023-05-20T23:30:32.821Z,14.81
2023-05-20T23:32:59.633Z,14.80
2023-05-20T23:35:27.756Z,14.79
2023-05-20T23:37:54.279Z,14.76
2023-05-20T23:40:20.970Z,14.76
2023-05-20T23:42:47.420Z,14.74
2023-05-20T23:45:14.004Z,14.78
2023-05-20T23:47:40.646Z,14.77
2023-05-20T23:50:07.376Z,14.75
2023-05-20T23:52:33.991Z,14.76
2023-05-20T23:55:00.616Z,14.69
2023-05-20T23:57:27.124Z,14.71
2023-05-20T23:59:53.611Z,14.68
